Airfield :
LOGIN :

Register | Disclaimer

   EN    FR    IT 

 










Legend :    VFR   Marginal VFR   IFR   Intensive IFR   Very Intensive IFR
Visi :
Ceiling :
>= 8 km
>= 3000ft
5 to 8 km
1000 to 3000 ft
1500m to 5 km
500 to 1000 ft
800 to 1500m
200 to 500 ft
< 800m
< 200 ft
Symbols :   Thunderstorms  Fog  Heavy snow  Heavy precipitations  Wind > 20 kt
SIGMETs :     Misc.  Thunderstorms  Icing  Turbulence  Mountain Waves  Volcanic Ashes







- Airport Elevation : 171 ft
- IATA code : EGC
- Download approach charts


LFBE - Bergerac

CURRENT METAR :
  • 100130Z AUTO 29005KT 9999 FEW026 OVC050 06/06 Q1032

EXPIRED METARs :
  • 100100Z AUTO 27004KT 9999 FEW030 OVC048 07/06 Q1032
  • 100030Z AUTO 27004KT 9000 OVC029 07/06 Q1032
  • 100000Z AUTO 29005KT 9999 BKN027 OVC033 07/06 Q1032
  • 092330Z AUTO 27006KT 9999 BKN026 BKN031 OVC050 09/07 Q1032
  • 092300Z AUTO 26008KT 9999 BKN029 BKN035 OVC052 09/08 Q1032

TAF TAF LFBE
Valid from the 09 at 18:00 until the 10 at 18:00 UTC


091700Z 0918/1018 25010G20KT 9999 BKN030
TEMPO 0918/0921 4500 -SHRA BKN020TCU
BECMG 0920/0922 27010KT
PROB30
TEMPO 1002/1009 2000 BCFG
BECMG 1013/1015 33010KT CAVOK
No reported NOTAMs for that airfield.
2 SIGMETs reported for the Bordeaux FIR (LFBB) :
 
Severe turbulence
LFBB SIGMET 10 VALID 092200/100200 LFPW
LFBB BORDEAUX FIR/UIR SEV TURB FCST WI N4215 E00230 - N4230 E00130 - N4345 E00245 - N4215 E00230 SFC/FL120 STNR NC=
Severe turbulence
LFBB SIGMET 1 VALID 100200/100600 LFPW
LFBB BORDEAUX FIR/UIR SEV TURB FCST SE OF LINE N4345 E00245 - N4230 E00130 SFC/FL080 STNR NC=



MET'MAP, your aeronautical weather chart ! - Copyright ORBIFLY December 2007 - Disclaimer

ORBIFLY MET'MAP TEAM :

Programming & Development : Alexandra Zaïnal
Concept & Development : Baudouin d'Aumeries
Co-Development & Prog : Marc-Olivier Méhu
Technical & hardware support : Manuel Goepfert

Contact : metmap@orbifly.com




SOURCES & CREDITS :

   NOAA